Time;durP1;ratioP1;P1;durP2;ratioP2;P2;SDS_P1;SDS_P2;PMS_P1;PMS_P2;Temp;Humidity;BMP_temperature;BMP_pressure;BME280_temperature;BME280_humidity;BME280_pressure;Samples;Min_cycle;Max_cycle;Signal;HPM_P1;HPM_P2
2022/10/26 00:02:58;;;;;;;2.75;1.83;;;;;;;1.42;100.00;100673.19;10459157;28;20496;-80
2022/10/26 00:08:00;;;;;;;5.38;3.08;;;;;;;1.43;100.00;100668.63;10441585;28;20042;-79
2022/10/26 00:13:04;;;;;;;3.47;2.58;;;;;;;1.46;100.00;100663.59;10459698;28;20061;-79
2022/10/26 00:18:06;;;;;;;4.20;2.72;;;;;;;1.49;100.00;100657.72;10463177;28;20045;-79
2022/10/26 00:23:08;;;;;;;3.70;2.45;;;;;;;1.48;100.00;100650.69;10471181;28;20056;-78
2022/10/26 00:28:10;;;;;;;2.10;1.90;;;;;;;1.48;100.00;100641.75;10471259;28;20494;-78
2022/10/26 00:33:13;;;;;;;3.90;2.40;;;;;;;1.48;100.00;100634.44;10452043;28;20041;-84
2022/10/26 00:38:15;;;;;;;5.72;2.50;;;;;;;1.49;100.00;100641.50;10464445;28;20044;-78
2022/10/26 00:43:19;;;;;;;4.35;2.60;;;;;;;1.51;100.00;100636.72;10468860;28;20451;-77
2022/10/26 00:48:25;;;;;;;5.25;2.85;;;;;;;1.54;100.00;100629.19;10451018;28;20053;-78
2022/10/26 00:53:28;;;;;;;3.65;2.28;;;;;;;1.55;100.00;100617.31;10470314;28;20048;-79
2022/10/26 00:58:31;;;;;;;7.28;3.08;;;;;;;1.58;100.00;100616.91;10471478;28;20090;-79
2022/10/26 01:03:34;;;;;;;6.28;3.15;;;;;;;1.59;100.00;100613.16;10453561;28;20033;-77
2022/10/26 01:08:37;;;;;;;7.82;3.92;;;;;;;1.61;100.00;100609.16;10445969;28;20052;-76
2022/10/26 01:13:41;;;;;;;4.30;2.75;;;;;;;1.60;100.00;100599.41;10455597;28;20045;-75
2022/10/26 01:19:02;;;;;;;8.25;3.67;;;;;;;1.63;100.00;100603.53;10458439;28;20041;-75
2022/10/26 01:24:25;;;;;;;8.32;3.55;;;;;;;1.64;100.00;100599.78;10474968;28;20044;-76
2022/10/26 01:29:34;;;;;;;6.32;3.00;;;;;;;1.66;100.00;100593.09;10452763;28;20061;-82
2022/10/26 01:34:45;;;;;;;5.35;3.33;;;;;;;1.69;100.00;100602.63;10461152;28;20042;-80
2022/10/26 01:39:54;;;;;;;7.18;3.38;;;;;;;1.70;100.00;100588.06;10405410;28;20048;-75
2022/10/26 01:45:00;;;;;;;5.43;3.40;;;;;;;1.74;100.00;100587.41;10444610;28;20050;-75
2022/10/26 01:50:03;;;;;;;6.45;4.03;;;;;;;1.74;100.00;100584.69;10438428;28;20038;-75
2022/10/26 01:55:32;;;;;;;8.38;4.10;;;;;;;1.76;100.00;100581.75;10405960;28;20045;-74
2022/10/26 02:00:36;;;;;;;7.15;3.95;;;;;;;1.80;100.00;100577.56;10417606;28;20048;-76
2022/10/26 02:06:01;;;;;;;5.60;3.55;;;;;;;1.84;100.00;100577.91;10448863;28;20042;-74
2022/10/26 02:11:37;;;;;;;6.18;3.85;;;;;;;1.83;100.00;100571.69;10440857;28;20056;-75
2022/10/26 02:17:06;;;;;;;5.47;3.45;;;;;;;1.85;100.00;100569.56;10464383;28;20049;-75
2022/10/26 02:22:18;;;;;;;5.35;3.53;;;;;;;1.86;100.00;100565.81;10450576;28;20097;-75
2022/10/26 02:27:24;;;;;;;5.53;3.45;;;;;;;1.92;100.00;100564.94;10467838;28;20052;-76
2022/10/26 02:32:29;;;;;;;5.32;3.15;;;;;;;1.96;100.00;100565.31;10482007;28;20037;-76
2022/10/26 02:37:33;;;;;;;5.80;3.20;;;;;;;2.00;100.00;100559.19;10468419;28;20034;-76
2022/10/26 02:42:36;;;;;;;6.75;3.92;;;;;;;2.00;100.00;100558.38;10461592;28;20037;-76
2022/10/26 02:47:38;;;;;;;9.57;4.05;;;;;;;2.09;100.00;100554.31;10465080;28;20408;-76
2022/10/26 02:52:45;;;;;;;6.88;4.28;;;;;;;2.13;100.00;100563.63;10468834;28;20032;-76
2022/10/26 02:57:50;;;;;;;7.38;4.18;;;;;;;2.13;100.00;100560.09;10427112;28;20404;-76
2022/10/26 03:02:56;;;;;;;2.75;1.83;;;;;;;2.17;100.00;100553.16;10445258;28;20052;-76
2022/10/26 03:07:59;;;;;;;9.27;4.65;;;;;;;2.22;100.00;100547.88;10443134;28;20052;-76
2022/10/26 03:13:02;;;;;;;7.57;4.65;;;;;;;2.29;100.00;100548.66;10453741;28;20045;-76
2022/10/26 03:18:05;;;;;;;9.63;5.00;;;;;;;2.32;100.00;100540.06;10457143;28;20053;-74
2022/10/26 03:23:07;;;;;;;6.25;4.28;;;;;;;2.33;100.00;100545.25;10456498;28;20068;-74
2022/10/26 03:28:09;;;;;;;10.15;5.13;;;;;;;2.36;100.00;100538.53;10471165;28;20041;-74
2022/10/26 03:33:11;;;;;;;7.50;4.95;;;;;;;2.37;100.00;100543.72;10482063;28;20060;-74
2022/10/26 03:38:13;;;;;;;8.60;5.05;;;;;;;2.38;100.00;100533.72;10472243;28;20033;-74
2022/10/26 03:43:16;;;;;;;9.85;5.13;;;;;;;2.42;100.00;100534.91;10442080;28;20052;-75
2022/10/26 03:48:18;;;;;;;7.43;5.13;;;;;;;2.51;100.00;100525.41;10447225;28;20041;-76
2022/10/26 03:53:20;;;;;;;8.20;4.93;;;;;;;2.55;100.00;100526.59;10457276;28;20045;-75
2022/10/26 03:58:22;;;;;;;10.88;5.05;;;;;;;2.59;100.00;100519.66;10442125;28;20038;-75
2022/10/26 04:03:25;;;;;;;9.40;5.25;;;;;;;2.61;100.00;100522.16;10442928;28;20041;-75
2022/10/26 04:08:27;;;;;;;9.25;5.38;;;;;;;2.59;100.00;100516.94;10444105;28;20500;-76
2022/10/26 04:13:29;;;;;;;9.63;6.25;;;;;;;2.57;100.00;100519.06;10432355;28;20041;-76
2022/10/26 04:18:32;;;;;;;10.50;5.30;;;;;;;2.56;100.00;100511.97;10442036;28;20518;-74
2022/10/26 04:23:34;;;;;;;8.60;5.53;;;;;;;2.60;100.00;100517.75;10440457;28;20049;-75
2022/10/26 04:28:36;;;;;;;10.90;5.80;;;;;;;2.61;100.00;100514.84;10448390;28;20128;-75
2022/10/26 04:33:38;;;;;;;7.53;5.10;;;;;;;2.66;100.00;100509.56;10450544;28;20525;-75
2022/10/26 04:38:40;;;;;;;10.82;6.20;;;;;;;2.77;100.00;100520.63;10455019;28;20492;-76
2022/10/26 04:43:43;;;;;;;12.38;6.38;;;;;;;2.77;100.00;100513.31;10454385;28;20500;-75
2022/10/26 04:48:47;;;;;;;11.20;5.82;;;;;;;2.79;100.00;100505.81;10465104;28;20408;-75
2022/10/26 04:53:52;;;;;;;15.50;5.93;;;;;;;2.79;100.00;100505.00;10464564;28;20575;-75
2022/10/26 04:58:54;;;;;;;11.43;6.05;;;;;;;2.81;100.00;100500.16;10474156;28;20041;-75
2022/10/26 05:03:57;;;;;;;11.52;5.85;;;;;;;2.82;100.00;100509.94;10450098;28;20045;-75
2022/10/26 05:08:59;;;;;;;8.02;5.38;;;;;;;3.07;100.00;100502.41;10450785;28;20042;-76
2022/10/26 05:14:01;;;;;;;9.90;5.57;;;;;;;3.34;100.00;100510.91;10448461;28;20048;-75
2022/10/26 05:19:03;;;;;;;10.73;5.85;;;;;;;3.51;100.00;100500.97;10449131;28;20049;-75
2022/10/26 05:24:06;;;;;;;11.73;6.28;;;;;;;3.86;100.00;100489.22;10449096;28;20416;-76
2022/10/26 05:29:08;;;;;;;11.82;5.25;;;;;;;3.95;100.00;100495.91;10421833;28;20322;-75
2022/10/26 05:34:10;;;;;;;14.77;5.75;;;;;;;3.79;100.00;100494.78;10482566;28;20076;-75
2022/10/26 05:39:12;;;;;;;12.57;5.68;;;;;;;3.64;100.00;100483.59;10468289;28;20049;-74
2022/10/26 05:44:14;;;;;;;6.88;4.85;;;;;;;3.64;100.00;100489.03;10447840;28;20049;-75
2022/10/26 05:49:17;;;;;;;11.05;4.85;;;;;;;3.61;100.00;100478.66;10469074;28;20057;-75
2022/10/26 05:54:19;;;;;;;3.67;2.20;;;;;;;3.85;100.00;100482.97;10450755;28;20049;-75
2022/10/26 05:59:22;;;;;;;8.55;4.30;;;;;;;3.73;100.00;100487.59;10442606;28;20038;-75
2022/10/26 06:04:37;;;;;;;7.18;4.30;;;;;;;3.78;100.00;100484.97;10447117;28;20045;-75
2022/10/26 06:09:40;;;;;;;8.15;4.07;;;;;;;3.79;100.00;100483.91;10443315;28;20531;-76
2022/10/26 06:14:43;;;;;;;7.00;4.35;;;;;;;3.85;100.00;100485.69;10447085;28;20040;-81
2022/10/26 06:20:08;;;;;;;9.88;4.40;;;;;;;3.79;100.00;100477.66;10416539;28;20069;-77
2022/10/26 06:25:44;;;;;;;3.40;2.70;;;;;;;3.84;100.00;100480.50;10445706;28;20068;-77
2022/10/26 06:30:46;;;;;;;7.78;4.13;;;;;;;3.81;100.00;100480.97;10428649;28;20082;-77
2022/10/26 06:36:08;;;;;;;7.47;3.90;;;;;;;3.89;100.00;100486.84;10404886;28;20125;-77
2022/10/26 06:41:15;;;;;;;9.25;4.93;;;;;;;3.82;100.00;100482.63;10404200;28;20046;-76
2022/10/26 06:46:20;;;;;;;6.68;3.88;;;;;;;3.80;100.00;100479.31;10404362;28;20068;-76
2022/10/26 06:51:22;;;;;;;8.20;3.85;;;;;;;3.81;100.00;100479.06;10429404;28;20037;-76
2022/10/26 06:56:25;;;;;;;8.55;4.18;;;;;;;3.84;100.00;100473.19;10444803;28;20199;-76
2022/10/26 07:01:27;;;;;;;9.00;4.15;;;;;;;3.91;100.00;100468.44;10446377;28;20042;-76
2022/10/26 07:06:29;;;;;;;7.85;4.20;;;;;;;3.92;100.00;100483.66;10436296;28;20041;-77
2022/10/26 07:11:31;;;;;;;12.90;4.18;;;;;;;3.97;100.00;100484.81;10445764;28;20057;-75
2022/10/26 07:16:34;;;;;;;6.32;3.58;;;;;;;4.02;100.00;100487.66;10445705;28;20037;-75
2022/10/26 07:21:36;;;;;;;7.85;4.38;;;;;;;4.07;100.00;100474.97;10445610;28;20060;-75
2022/10/26 07:26:38;;;;;;;7.07;4.43;;;;;;;4.10;100.00;100489.97;10438301;28;20054;-76
2022/10/26 07:31:40;;;;;;;10.65;3.85;;;;;;;4.18;100.00;100484.97;10445013;28;20057;-75
2022/10/26 07:36:46;;;;;;;7.85;3.85;;;;;;;4.22;100.00;100494.28;10443592;28;20055;-76
2022/10/26 07:41:49;;;;;;;7.60;3.95;;;;;;;4.25;100.00;100487.53;10445405;28;20065;-77
2022/10/26 07:46:51;;;;;;;7.32;3.72;;;;;;;4.32;100.00;100487.38;10438606;28;20050;-75
2022/10/26 07:51:53;;;;;;;11.88;3.75;;;;;;;4.41;100.00;100491.38;10442963;28;20131;-75
2022/10/26 07:56:55;;;;;;;7.20;4.10;;;;;;;4.49;100.00;100483.63;10444622;28;20049;-75
2022/10/26 08:01:57;;;;;;;11.05;3.92;;;;;;;4.63;100.00;100488.75;10437892;28;20057;-75
2022/10/26 08:06:59;;;;;;;9.40;4.07;;;;;;;4.72;100.00;100482.69;10442613;28;20049;-76
2022/10/26 08:12:01;;;;;;;8.40;4.05;;;;;;;4.75;100.00;100492.22;10442046;28;20411;-77
2022/10/26 08:17:04;;;;;;;10.27;4.07;;;;;;;4.84;100.00;100502.44;10443197;28;20049;-78
2022/10/26 08:22:06;;;;;;;8.25;4.80;;;;;;;4.88;100.00;100500.06;10448128;28;20107;-78
2022/10/26 08:27:08;;;;;;;7.13;5.07;;;;;;;4.93;100.00;100494.72;10451980;28;20044;-77
2022/10/26 08:32:10;;;;;;;7.78;4.38;;;;;;;4.94;100.00;100496.34;10443466;28;20053;-77
2022/10/26 08:37:12;;;;;;;7.80;3.92;;;;;;;4.91;100.00;100499.56;10450757;28;20045;-76
2022/10/26 08:42:27;;;;;;;11.77;4.05;;;;;;;4.96;100.00;100501.53;10415640;28;20040;-75
2022/10/26 08:47:33;;;;;;;7.50;3.75;;;;;;;5.09;100.00;100501.22;10450394;28;20042;-76
2022/10/26 08:52:41;;;;;;;8.63;4.75;;;;;;;5.23;100.00;100498.97;10450079;28;20504;-76
2022/10/26 08:57:46;;;;;;;10.35;4.95;;;;;;;5.29;100.00;100498.78;10479025;28;20053;-76
2022/10/26 09:02:52;;;;;;;8.00;4.40;;;;;;;5.33;100.00;100501.84;10482402;28;20058;-74
2022/10/26 09:08:30;;;;;;;9.43;4.90;;;;;;;5.34;100.00;100501.59;10449132;28;20052;-75
2022/10/26 09:13:32;;;;;;;7.35;4.80;;;;;;;5.41;100.00;100491.34;10427861;28;20404;-75
2022/10/26 09:19:00;;;;;;;9.02;5.15;;;;;;;5.47;100.00;100503.13;10448570;28;20049;-77
2022/10/26 09:24:02;;;;;;;9.32;5.03;;;;;;;5.55;100.00;100497.25;10448452;28;20041;-77
2022/10/26 09:29:06;;;;;;;11.27;5.18;;;;;;;5.61;100.00;100490.00;10449417;28;20048;-76
2022/10/26 09:34:17;;;;;;;9.45;4.43;;;;;;;5.79;100.00;100492.41;10446889;28;20041;-76
2022/10/26 09:39:22;;;;;;;10.82;4.55;;;;;;;5.84;100.00;100491.63;10431399;28;20057;-76
2022/10/26 09:44:33;;;;;;;9.48;4.90;;;;;;;5.92;100.00;100502.94;10449105;28;20041;-75
2022/10/26 09:49:47;;;;;;;11.60;5.28;;;;;;;5.94;100.00;100510.88;10464124;28;20042;-75
2022/10/26 09:54:49;;;;;;;11.43;5.00;;;;;;;5.90;100.00;100501.53;10448094;28;20503;-75
2022/10/26 09:59:54;;;;;;;13.77;5.65;;;;;;;5.91;100.00;100509.47;10447996;28;20045;-77
2022/10/26 10:04:56;;;;;;;12.82;5.68;;;;;;;5.96;100.00;100509.53;10450794;28;20045;-75
2022/10/26 10:10:07;;;;;;;13.68;6.28;;;;;;;5.99;100.00;100503.56;10448111;28;20413;-76
2022/10/26 10:15:17;;;;;;;11.80;7.03;;;;;;;6.06;100.00;100514.25;10446529;28;20045;-76
2022/10/26 10:20:28;;;;;;;14.25;6.10;;;;;;;6.12;100.00;100505.09;10447653;28;20049;-76
2022/10/26 10:25:36;;;;;;;15.93;6.63;;;;;;;6.17;100.00;100502.41;10446014;28;20482;-75
2022/10/26 10:30:52;;;;;;;11.10;6.28;;;;;;;6.23;100.00;100506.00;10447267;28;20052;-86
2022/10/26 10:35:54;;;;;;;14.30;6.40;;;;;;;6.24;100.00;100499.47;10443373;28;20527;-85
2022/10/26 10:40:58;;;;;;;12.57;6.82;;;;;;;6.34;100.00;100514.06;10434039;28;20053;-79
2022/10/26 10:46:00;;;;;;;11.15;6.50;;;;;;;6.39;100.00;100517.91;10416023;28;20057;-75
2022/10/26 10:51:11;;;;;;;14.25;7.28;;;;;;;6.36;100.00;100521.97;10434107;28;20046;-76
2022/10/26 10:56:35;;;;;;;16.45;7.82;;;;;;;6.43;100.00;100519.06;10443106;28;20041;-82
2022/10/26 11:01:39;;;;;;;14.63;7.03;;;;;;;6.46;100.00;100521.25;10439562;28;20033;-79
2022/10/26 11:06:42;;;;;;;12.25;7.13;;;;;;;6.56;100.00;100524.06;10408268;28;20048;-75
2022/10/26 11:12:18;;;;;;;14.68;7.30;;;;;;;6.57;100.00;100520.25;10456534;28;20052;-74
2022/10/26 11:17:25;;;;;;;10.63;6.60;;;;;;;6.60;100.00;100514.31;10468171;28;20056;-74
2022/10/26 11:22:54;;;;;;;14.20;7.07;;;;;;;6.67;100.00;100525.00;10428188;28;20514;-74
2022/10/26 11:28:14;;;;;;;19.48;7.85;;;;;;;6.76;100.00;100528.91;10443335;28;20037;-76
2022/10/26 11:33:22;;;;;;;15.85;7.20;;;;;;;6.77;100.00;100525.94;10427610;28;20068;-74
2022/10/26 11:38:32;;;;;;;;;;;;;;;6.81;100.00;100527.06;10442943;28;20176;-75
2022/10/26 11:43:39;;;;;;;15.85;6.75;;;;;;;6.80;100.00;100525.41;10443309;28;19927;-80
2022/10/26 11:49:19;;;;;;;16.60;7.28;;;;;;;6.81;100.00;100521.59;10444533;28;20411;-79
2022/10/26 11:54:27;;;;;;;17.38;7.90;;;;;;;6.94;100.00;100526.63;10438501;28;20064;-79
2022/10/26 11:59:30;;;;;;;;;;;;;;;7.02;100.00;100521.78;10418489;28;20068;-80
2022/10/26 12:04:34;;;;;;;13.07;7.25;;;;;;;7.04;100.00;100520.44;10443124;28;19925;-80
2022/10/26 12:09:38;;;;;;;15.60;7.20;;;;;;;7.05;100.00;100523.97;10410114;28;20526;-80
2022/10/26 12:14:49;;;;;;;15.45;7.05;;;;;;;7.07;100.00;100525.34;10393702;28;20046;-80
2022/10/26 12:20:15;;;;;;;15.65;7.10;;;;;;;7.08;100.00;100526.19;10440543;28;20050;-80
2022/10/26 12:25:20;;;;;;;15.70;6.78;;;;;;;7.08;100.00;100524.28;10401482;28;20410;-80
2022/10/26 12:30:31;;;;;;;16.90;6.78;;;;;;;7.11;100.00;100525.66;10419866;28;20044;-79
2022/10/26 12:35:36;;;;;;;15.23;6.95;;;;;;;7.12;100.00;100522.69;10437770;28;20050;-79
2022/10/26 12:40:40;;;;;;;14.88;6.53;;;;;;;7.15;100.00;100524.06;10441571;28;20034;-80
2022/10/26 12:45:44;;;;;;;10.63;6.43;;;;;;;7.16;100.00;100518.34;10443345;28;20538;-80
2022/10/26 12:50:47;;;;;;;13.65;6.53;;;;;;;7.22;100.00;100527.38;10441872;28;20033;-80
2022/10/26 12:56:00;;;;;;;10.65;6.15;;;;;;;7.29;100.00;100527.16;10458417;28;20052;-80
2022/10/26 13:01:02;;;;;;;10.65;5.97;;;;;;;7.28;100.00;100534.53;10436227;28;20050;-80
2022/10/26 13:06:29;;;;;;;14.05;6.05;;;;;;;7.29;100.00;100529.88;10439132;28;20041;-79
2022/10/26 13:11:40;;;;;;;9.90;5.37;;;;;;;7.30;100.00;100535.09;10407373;28;20559;-80
2022/10/26 13:16:44;;;;;;;16.10;6.35;;;;;;;7.33;100.00;100539.22;10418749;28;20045;-80
2022/10/26 13:21:47;;;;;;;11.88;5.70;;;;;;;7.33;100.00;100540.03;10449154;28;20044;-80
2022/10/26 13:27:06;;;;;;;17.17;6.40;;;;;;;7.36;100.00;100538.69;10448486;28;20443;-80
2022/10/26 13:32:07;;;;;;;;;;;;;;;7.40;100.00;100543.34;10447006;28;20041;-79
2022/10/26 13:37:20;;;;;;;13.15;5.82;;;;;;;7.46;100.00;100547.78;10446456;28;20326;-79
2022/10/26 13:42:27;;;;;;;15.40;6.38;;;;;;;7.49;100.00;100541.78;10433321;28;20037;-79
2022/10/26 13:47:54;;;;;;;15.40;7.03;;;;;;;7.52;100.00;100554.09;10452381;28;20038;-82
2022/10/26 13:53:06;;;;;;;14.15;6.28;;;;;;;7.59;100.00;100554.66;10446368;28;20483;-83
2022/10/26 13:58:20;;;;;;;13.25;6.85;;;;;;;7.63;100.00;100554.94;10435880;28;20408;-81
2022/10/26 14:03:22;;;;;;;16.15;6.45;;;;;;;7.64;100.00;100540.25;10453971;28;20088;-79
2022/10/26 14:08:24;;;;;;;14.88;6.15;;;;;;;7.67;100.00;100545.16;10436304;28;20411;-82
2022/10/26 14:13:27;;;;;;;13.85;5.57;;;;;;;7.69;100.00;100552.00;10441164;28;20045;-84
2022/10/26 14:18:30;;;;;;;15.52;6.50;;;;;;;7.75;100.00;100550.13;10443200;28;20049;-88
2022/10/26 14:23:36;;;;;;;15.35;6.25;;;;;;;7.77;100.00;100548.75;10447668;28;20037;-84
2022/10/26 14:28:47;;;;;;;11.20;5.68;;;;;;;7.81;100.00;100549.91;10445114;28;20061;-82
2022/10/26 14:33:50;;;;;;;10.52;5.43;;;;;;;7.83;100.00;100553.19;10442581;28;20527;-83
2022/10/26 14:38:57;;;;;;;13.63;6.70;;;;;;;7.86;100.00;100551.81;10452587;28;20033;-80
2022/10/26 14:44:00;;;;;;;10.10;5.00;;;;;;;7.86;100.00;100560.03;10425756;28;20530;-84
2022/10/26 14:49:21;;;;;;;13.35;5.68;;;;;;;7.87;100.00;100561.66;10439917;28;20033;-81
2022/10/26 14:54:26;;;;;;;12.23;5.70;;;;;;;7.87;100.00;100564.41;10442680;28;20076;-86
2022/10/26 14:59:30;;;;;;;12.63;5.38;;;;;;;7.92;100.00;100569.06;10440814;28;20045;-81
2022/10/26 15:04:33;;;;;;;11.25;5.57;;;;;;;7.91;100.00;100562.78;10437656;28;20045;-83
2022/10/26 15:09:49;;;;;;;11.63;5.28;;;;;;;7.92;100.00;100556.22;10421211;28;20048;-85
2022/10/26 15:14:51;;;;;;;7.47;4.72;;;;;;;7.94;100.00;100562.25;10427793;28;20041;-86
2022/10/26 15:19:54;;;;;;;10.02;5.63;;;;;;;7.99;100.00;100554.09;10445686;28;20049;-85
2022/10/26 15:24:57;;;;;;;12.23;5.68;;;;;;;8.01;100.00;100553.81;10442020;28;20041;-84
2022/10/26 15:30:23;;;;;;;12.30;4.68;;;;;;;8.03;100.00;100560.66;10443903;28;20087;-86
2022/10/26 15:35:30;;;;;;;11.60;5.80;;;;;;;8.07;100.00;100558.22;10438885;28;20515;-81
2022/10/26 15:40:35;;;;;;;12.15;5.43;;;;;;;8.15;100.00;100560.41;10440830;28;20046;-81
2022/10/26 15:45:50;;;;;;;10.95;5.15;;;;;;;8.21;100.00;100555.81;10440627;28;20522;-82
2022/10/26 15:51:18;;;;;;;10.13;5.03;;;;;;;8.25;100.00;100554.19;10440162;28;20037;-84
2022/10/26 15:56:22;;;;;;;12.35;5.25;;;;;;;8.31;100.00;100558.56;10442051;28;20064;-84
2022/10/26 16:01:27;;;;;;;11.35;5.30;;;;;;;8.31;100.00;100561.31;10442658;28;20060;-82
2022/10/26 16:06:31;;;;;;;14.35;5.35;;;;;;;8.33;100.00;100553.66;10444289;28;20060;-86
2022/10/26 16:11:33;;;;;;;11.82;5.70;;;;;;;8.34;100.00;100558.09;10439290;28;20246;-85
2022/10/26 16:16:36;;;;;;;9.02;5.18;;;;;;;8.37;100.00;100560.28;10443596;28;20508;-86
2022/10/26 16:21:38;;;;;;;10.13;4.95;;;;;;;8.43;100.00;100565.50;10418148;28;20124;-79
2022/10/26 16:26:40;;;;;;;13.40;5.95;;;;;;;8.50;100.00;100564.41;10458047;28;20087;-84
2022/10/26 16:31:42;;;;;;;9.38;5.05;;;;;;;8.54;100.00;100565.53;10482801;28;20052;-80
2022/10/26 16:36:44;;;;;;;14.32;5.28;;;;;;;8.53;100.00;100561.97;10444431;28;20053;-80
2022/10/26 16:41:51;;;;;;;9.32;4.97;;;;;;;8.57;100.00;100570.44;10443596;28;20060;-81
2022/10/26 16:46:53;;;;;;;9.10;5.43;;;;;;;8.59;100.00;100569.09;10450060;28;20037;-78
2022/10/26 16:52:24;;;;;;;8.82;4.95;;;;;;;8.62;100.00;100571.28;10434321;28;20408;-78
2022/10/26 16:57:27;;;;;;;11.70;5.45;;;;;;;8.65;100.00;100569.91;10459720;28;20049;-78
2022/10/26 17:02:29;;;;;;;17.77;5.85;;;;;;;8.69;100.00;100576.50;10417522;28;20049;-80
2022/10/26 17:07:31;;;;;;;8.52;4.65;;;;;;;8.70;100.00;100562.56;10463667;28;20034;-83
2022/10/26 17:12:34;;;;;;;13.60;6.88;;;;;;;8.71;100.00;100568.84;10448304;28;20393;-78
2022/10/26 17:17:36;;;;;;;11.10;5.63;;;;;;;8.70;100.00;100576.25;10449863;28;20084;-79
2022/10/26 17:22:38;;;;;;;9.48;4.88;;;;;;;8.72;100.00;100579.53;10449386;28;20052;-81
2022/10/26 17:27:40;;;;;;;12.00;5.68;;;;;;;8.76;100.00;100582.53;10423101;28;20037;-82
2022/10/26 17:32:43;;;;;;;10.32;5.70;;;;;;;8.77;100.00;100587.72;10449721;28;20045;-82
2022/10/26 17:37:45;;;;;;;10.75;5.57;;;;;;;8.82;100.00;100588.81;10465803;28;20056;-81
2022/10/26 17:42:47;;;;;;;10.40;5.80;;;;;;;8.82;100.00;100595.13;10452338;28;20053;-81
2022/10/26 17:47:50;;;;;;;9.93;5.65;;;;;;;8.83;100.00;100590.47;10446964;28;20052;-78
2022/10/26 17:52:53;;;;;;;14.63;5.35;;;;;;;8.82;100.00;100589.66;10481312;28;20401;-76
2022/10/26 17:57:56;;;;;;;10.10;6.13;;;;;;;8.83;100.00;100593.19;10446649;28;20048;-78
2022/10/26 18:02:58;;;;;;;7.75;5.15;;;;;;;8.79;100.00;100584.72;10451885;28;20037;-79
2022/10/26 18:08:00;;;;;;;10.80;5.72;;;;;;;8.79;100.00;100592.09;10426273;28;20049;-79
2022/10/26 18:13:02;;;;;;;11.23;5.07;;;;;;;8.81;100.00;100600.88;10468919;28;20121;-80
2022/10/26 18:18:05;;;;;;;9.68;4.65;;;;;;;8.81;100.00;100604.44;10444071;28;20049;-78
2022/10/26 18:23:07;;;;;;;9.25;4.70;;;;;;;8.83;100.00;100599.50;10454573;28;20041;-80
2022/10/26 18:28:09;;;;;;;6.88;3.45;;;;;;;8.82;100.00;100607.97;10438419;28;20041;-79
2022/10/26 18:33:11;;;;;;;7.05;4.05;;;;;;;8.81;100.00;100609.91;10442670;28;20030;-87
2022/10/26 18:38:14;;;;;;;6.55;3.70;;;;;;;8.81;100.00;100609.06;10449781;28;20048;-77
2022/10/26 18:43:16;;;;;;;6.90;3.40;;;;;;;8.88;100.00;100609.66;10448633;28;20045;-84
2022/10/26 18:48:18;;;;;;;6.40;3.45;;;;;;;8.88;100.00;100613.22;10446441;28;20053;-77
2022/10/26 18:53:21;;;;;;;6.78;3.40;;;;;;;8.88;100.00;100628.81;10445848;28;20048;-74
2022/10/26 18:58:23;;;;;;;7.22;3.20;;;;;;;8.90;100.00;100626.63;10442042;28;20037;-77
2022/10/26 19:03:25;;;;;;;9.10;4.72;;;;;;;8.87;100.00;100629.91;10460104;28;20033;-82
2022/10/26 19:08:28;;;;;;;7.30;3.65;;;;;;;8.83;100.00;100642.47;10441898;28;20060;-80
2022/10/26 19:13:30;;;;;;;5.95;3.88;;;;;;;8.76;100.00;100646.28;10444483;28;20052;-76
2022/10/26 19:18:32;;;;;;;7.63;3.60;;;;;;;8.73;100.00;100641.34;10443245;28;20060;-76
2022/10/26 19:23:37;;;;;;;8.55;3.20;;;;;;;8.74;100.00;100643.00;10446232;28;20064;-78
2022/10/26 19:28:40;;;;;;;9.55;3.30;;;;;;;8.73;100.00;100652.28;10448873;28;20411;-82
2022/10/26 19:33:42;;;;;;;8.52;3.83;;;;;;;8.79;100.00;100644.91;10443109;28;20056;-83
2022/10/26 19:38:44;;;;;;;7.72;3.10;;;;;;;8.81;100.00;100653.66;10431416;28;20049;-81
2022/10/26 19:43:46;;;;;;;7.47;3.35;;;;;;;8.79;100.00;100644.09;10471467;28;20040;-78
2022/10/26 19:48:50;;;;;;;7.05;3.47;;;;;;;8.74;100.00;100643.00;10454604;28;20041;-82
2022/10/26 19:53:53;;;;;;;5.85;2.88;;;;;;;8.72;100.00;100649.84;10442807;28;20058;-82
2022/10/26 19:58:55;;;;;;;5.05;2.80;;;;;;;8.71;100.00;100650.94;10446009;28;20049;-80
2022/10/26 20:03:57;;;;;;;8.07;3.35;;;;;;;8.74;100.00;100653.94;10446869;28;20040;-82
2022/10/26 20:09:01;;;;;;;5.80;3.30;;;;;;;8.80;100.00;100648.47;10485906;28;20053;-84
2022/10/26 20:14:06;;;;;;;6.63;3.45;;;;;;;8.84;100.00;100653.13;10452096;28;20064;-88
2022/10/26 20:19:08;;;;;;;6.00;2.92;;;;;;;8.84;100.00;100658.59;10477033;28;20053;-79
2022/10/26 20:24:10;;;;;;;5.82;3.50;;;;;;;8.85;100.00;100656.69;10461170;28;20048;-80
2022/10/26 20:29:13;;;;;;;4.55;3.38;;;;;;;8.84;100.00;100653.13;10451689;28;20048;-79
2022/10/26 20:34:15;;;;;;;6.13;3.33;;;;;;;8.84;100.00;100658.59;10470115;28;20046;-81
2022/10/26 20:39:17;;;;;;;7.32;3.63;;;;;;;8.86;100.00;100658.38;10462622;28;20049;-84
2022/10/26 20:44:23;;;;;;;5.45;3.50;;;;;;;8.87;100.00;100654.53;10447360;28;20056;-83
2022/10/26 20:49:26;;;;;;;5.53;4.15;;;;;;;8.86;100.00;100663.84;10442234;28;20057;-75
2022/10/26 20:54:38;;;;;;;5.97;3.70;;;;;;;8.87;100.00;100662.75;10446410;28;20386;-75
2022/10/26 20:59:48;;;;;;;4.50;3.55;;;;;;;8.85;100.00;100660.28;10445887;28;20041;-75
2022/10/26 21:04:51;;;;;;;7.10;3.58;;;;;;;8.85;100.00;100664.91;10460130;28;20647;-75
2022/10/26 21:09:53;;;;;;;6.60;3.80;;;;;;;8.84;100.00;100664.06;10456382;28;20067;-85
2022/10/26 21:14:55;;;;;;;6.90;3.13;;;;;;;8.85;100.00;100664.91;10416959;28;20419;-85
2022/10/26 21:19:57;;;;;;;5.18;2.95;;;;;;;8.84;100.00;100664.06;10492230;28;20045;-83
2022/10/26 21:24:59;;;;;;;4.47;2.60;;;;;;;8.84;100.00;100672.28;10460385;28;20044;-85
2022/10/26 21:30:02;;;;;;;5.28;2.75;;;;;;;8.85;100.00;100665.75;10449889;28;20045;-77
2022/10/26 21:35:04;;;;;;;6.97;3.03;;;;;;;8.82;100.00;100669.00;10448779;28;20050;-81
2022/10/26 21:40:12;;;;;;;7.07;3.20;;;;;;;8.83;100.00;100672.56;10447767;28;20033;-76
2022/10/26 21:45:14;;;;;;;5.47;2.95;;;;;;;8.84;100.00;100674.19;10424751;28;20037;-78
2022/10/26 21:50:16;;;;;;;5.40;3.25;;;;;;;8.86;100.00;100674.78;10446928;28;20046;-77
2022/10/26 21:55:18;;;;;;;4.70;3.15;;;;;;;8.86;100.00;100683.00;10447900;28;20049;-76
2022/10/26 22:00:49;;;;;;;8.48;3.30;;;;;;;8.84;100.00;100685.16;10448243;28;20041;-78
2022/10/26 22:05:52;;;;;;;5.95;2.90;;;;;;;8.83;100.00;100689.78;10440430;28;20042;-92
2022/10/26 22:10:54;;;;;;;4.40;2.70;;;;;;;8.84;100.00;100690.63;10449133;28;20037;-86
2022/10/26 22:16:05;;;;;;;5.82;3.10;;;;;;;8.82;100.00;100693.63;10446005;28;20543;-89
2022/10/26 22:21:07;;;;;;;4.95;3.15;;;;;;;8.83;100.00;100688.97;10446633;28;20569;-93
2022/10/26 22:26:15;;;;;;;5.50;3.50;;;;;;;8.84;100.00;100691.44;10446917;28;20049;-88
2022/10/26 22:31:20;;;;;;;3.23;2.50;;;;;;;8.83;100.00;100697.19;10447381;28;20045;-90
2022/10/26 22:36:23;;;;;;;5.80;3.05;;;;;;;8.84;100.00;100696.09;10443366;28;20534;-88
2022/10/26 22:41:25;;;;;;;6.53;3.65;;;;;;;8.85;100.00;100697.72;10428382;28;20048;-86
2022/10/26 22:46:27;;;;;;;10.32;4.20;;;;;;;8.86;100.00;100697.50;10446817;28;20037;-85
2022/10/26 22:51:33;;;;;;;7.20;3.20;;;;;;;8.89;100.00;100690.66;10445835;28;20407;-87
2022/10/26 22:56:35;;;;;;;7.50;4.07;;;;;;;8.89;100.00;100693.38;10465559;28;20056;-81
2022/10/26 23:02:03;;;;;;;5.40;3.42;;;;;;;8.88;100.00;100702.69;10474661;28;20044;-85
2022/10/26 23:07:05;;;;;;;5.65;3.72;;;;;;;8.85;100.00;100706.78;10461258;28;20048;-78
2022/10/26 23:12:08;;;;;;;5.00;3.58;;;;;;;8.87;100.00;100710.09;10464478;28;20045;-80
2022/10/26 23:17:10;;;;;;;5.55;3.65;;;;;;;8.87;100.00;100709.25;10446922;28;20061;-78
2022/10/26 23:22:12;;;;;;;7.00;3.58;;;;;;;8.89;100.00;100726.22;10454433;28;20064;-78